Time;durP1;ratioP1;P1;durP2;ratioP2;P2;SDS_P1;SDS_P2;PMS_P1;PMS_P2;Temp;Humidity;BMP_temperature;BMP_pressure;BME280_temperature;BME280_humidity;BME280_pressure;Samples;Min_cycle;Max_cycle;Signal;HPM_P1;HPM_P2
2023/05/03 00:00:29;;;;;;;3.53;2.40;;;;;;;5.21;84.26;101837.63;5012428;28;20554;-71
2023/05/03 00:02:56;;;;;;;3.37;2.40;;;;;;;5.37;84.89;101834.56;5012342;28;20268;-71
2023/05/03 00:05:23;;;;;;;4.83;2.90;;;;;;;5.47;85.09;101827.91;5012118;28;20206;-71
2023/05/03 00:07:49;;;;;;;2.73;2.50;;;;;;;5.58;85.19;101826.47;5012326;28;20229;-71
2023/05/03 00:10:16;;;;;;;4.40;2.60;;;;;;;5.52;85.39;101826.31;5012156;28;20290;-71
2023/05/03 00:12:43;;;;;;;2.87;2.40;;;;;;;5.58;84.79;101819.56;5012063;28;20222;-70
2023/05/03 00:15:11;;;;;;;3.57;2.43;;;;;;;5.47;84.22;101835.69;5012170;28;20212;-71
2023/05/03 00:17:38;;;;;;;2.70;2.50;;;;;;;5.37;84.63;101839.75;5011625;28;20639;-71
2023/05/03 00:20:06;;;;;;;3.27;2.47;;;;;;;5.35;85.77;101826.78;5012245;28;20212;-71
2023/05/03 00:22:33;;;;;;;2.63;2.17;;;;;;;5.45;85.31;101817.53;5012021;28;20208;-71
2023/05/03 00:25:00;;;;;;;7.00;2.90;;;;;;;5.34;86.11;101827.59;5012188;28;20286;-71
2023/05/03 00:27:26;;;;;;;2.43;2.23;;;;;;;5.45;85.52;101821.81;5011749;28;20223;-71
2023/05/03 00:29:53;;;;;;;4.77;3.00;;;;;;;5.50;85.21;101818.50;5012017;28;20615;-71
2023/05/03 00:32:21;;;;;;;3.60;2.80;;;;;;;5.47;84.64;101839.16;5011648;28;20216;-71
2023/05/03 00:34:52;;;;;;;3.00;2.70;;;;;;;5.53;84.17;101841.00;5011958;28;20208;-71
2023/05/03 00:37:19;;;;;;;5.10;2.33;;;;;;;5.60;83.94;101848.09;5011972;28;20228;-71
2023/05/03 00:39:45;;;;;;;6.50;2.40;;;;;;;5.66;83.74;101855.13;5011822;28;20210;-71
2023/05/03 00:42:11;;;;;;;3.70;2.40;;;;;;;5.69;83.51;101862.97;5012095;28;20208;-71
2023/05/03 00:44:38;;;;;;;4.40;2.87;;;;;;;5.43;83.59;101885.63;5014358;28;20259;-71
2023/05/03 00:47:05;;;;;;;3.60;2.57;;;;;;;5.36;84.88;101867.34;5015630;28;20215;-71
2023/05/03 00:49:33;;;;;;;2.70;2.43;;;;;;;5.25;85.47;101855.88;5015517;28;20263;-71
2023/05/03 00:52:01;;;;;;;4.23;2.80;;;;;;;5.17;85.46;101858.25;5015544;28;20287;-71
2023/05/03 00:54:28;;;;;;;4.50;2.73;;;;;;;5.20;85.72;101838.47;5015462;28;20206;-71
2023/05/03 00:56:56;;;;;;;3.07;2.60;;;;;;;5.29;85.65;101833.50;5015255;28;20203;-71
2023/05/03 00:59:23;;;;;;;4.83;2.47;;;;;;;5.22;85.93;101827.31;5015107;28;20208;-71
2023/05/03 01:01:50;;;;;;;4.00;2.63;;;;;;;5.24;85.66;101835.13;5014972;28;20662;-71
2023/05/03 01:04:18;;;;;;;4.70;2.67;;;;;;;5.30;85.45;101835.28;5015103;28;20209;-71
2023/05/03 01:06:48;;;;;;;3.57;2.63;;;;;;;5.37;85.18;101835.47;5015460;28;20207;-71
2023/05/03 01:09:22;;;;;;;2.50;2.27;;;;;;;5.40;84.77;101846.75;5015650;28;20258;-71
2023/05/03 01:12:01;;;;;;;2.83;2.53;;;;;;;5.45;84.60;101839.94;5014974;28;20218;-72
2023/05/03 01:14:36;;;;;;;5.87;2.83;;;;;;;5.50;84.56;101856.47;5015259;28;20207;-71
2023/05/03 01:17:07;;;;;;;3.07;2.60;;;;;;;5.48;84.27;101861.63;5014983;28;20267;-71
2023/05/03 01:19:37;;;;;;;2.77;2.43;;;;;;;5.51;83.77;101871.16;5014915;28;20678;-71
2023/05/03 01:22:14;;;;;;;2.90;2.67;;;;;;;5.48;83.95;101873.69;5014815;28;20211;-71
2023/05/03 01:24:47;;;;;;;2.60;2.40;;;;;;;5.45;83.83;101883.97;5015095;28;20238;-71
2023/05/03 01:27:14;;;;;;;3.33;2.20;;;;;;;5.44;83.58;101890.88;5014988;28;20236;-71
2023/05/03 01:29:42;;;;;;;3.60;2.70;;;;;;;5.48;83.85;101884.94;5014524;28;20291;-71
2023/05/03 01:32:15;;;;;;;2.87;2.30;;;;;;;5.27;84.26;101884.38;5014746;28;20221;-71
2023/05/03 01:34:51;;;;;;;3.23;2.43;;;;;;;5.18;85.27;101887.59;5014298;28;20221;-71
2023/05/03 01:37:18;;;;;;;3.50;2.70;;;;;;;5.12;84.92;101874.50;5014639;28;20227;-71
2023/05/03 01:39:50;;;;;;;4.07;2.30;;;;;;;5.04;85.14;101873.44;5014638;28;20204;-71
2023/05/03 01:42:19;;;;;;;2.53;2.33;;;;;;;5.07;85.15;101871.78;5014840;28;20213;-71
2023/05/03 01:44:48;;;;;;;3.50;3.20;;;;;;;5.08;86.25;101854.56;5014541;28;20409;-71
2023/05/03 01:47:15;;;;;;;2.50;2.30;;;;;;;5.14;85.85;101844.34;5014216;28;20229;-71
2023/05/03 01:49:41;;;;;;;4.60;2.90;;;;;;;5.23;85.46;101835.94;5014261;28;20282;-71
2023/05/03 01:52:07;;;;;;;6.23;2.67;;;;;;;5.22;85.72;101845.44;5014505;28;20216;-71
2023/05/03 01:54:34;;;;;;;2.90;2.70;;;;;;;5.28;84.80;101849.88;5014268;28;20270;-71
2023/05/03 01:57:01;;;;;;;4.13;2.77;;;;;;;5.33;84.51;101861.22;5014029;28;20614;-71
2023/05/03 01:59:29;;;;;;;3.70;2.53;;;;;;;5.31;84.36;101873.25;5014135;28;20644;-71
2023/05/03 02:01:56;;;;;;;2.70;2.40;;;;;;;5.23;84.00;101878.22;5014043;28;20236;-71
2023/05/03 02:04:22;;;;;;;3.73;2.30;;;;;;;5.22;84.32;101897.19;5014157;28;20262;-71
2023/05/03 02:06:48;;;;;;;4.37;2.67;;;;;;;5.15;83.61;101910.81;5013826;28;20677;-71
2023/05/03 02:09:15;;;;;;;7.77;3.10;;;;;;;5.04;84.32;101902.75;5013797;28;20727;-71
2023/05/03 02:11:42;;;;;;;3.00;2.50;;;;;;;5.03;84.80;101894.94;5014047;28;20216;-71
2023/05/03 02:14:09;;;;;;;3.40;2.80;;;;;;;4.95;85.61;101885.25;5013890;28;20216;-71
2023/05/03 02:16:36;;;;;;;3.60;2.97;;;;;;;5.05;85.67;101873.44;5013926;28;20735;-71
2023/05/03 02:19:03;;;;;;;3.20;2.97;;;;;;;5.03;85.60;101875.13;5013942;28;20228;-71
2023/05/03 02:21:30;;;;;;;3.03;2.80;;;;;;;4.93;85.44;101871.41;5013859;28;20243;-71
2023/05/03 02:23:56;;;;;;;4.17;2.40;;;;;;;4.90;86.32;101860.13;5013679;28;20709;-71
2023/05/03 02:26:23;;;;;;;4.33;3.00;;;;;;;4.91;86.13;101860.13;5013768;28;20213;-71
2023/05/03 02:28:49;;;;;;;2.97;2.77;;;;;;;4.98;85.85;101854.28;5013479;28;20289;-71
2023/05/03 02:31:16;;;;;;;3.30;3.00;;;;;;;4.77;84.95;101875.28;5013354;28;20554;-71
2023/05/03 02:33:43;;;;;;;3.73;3.10;;;;;;;4.45;85.80;101876.94;5013535;28;20205;-71
2023/05/03 02:36:10;;;;;;;4.03;3.10;;;;;;;4.25;87.19;101862.56;5013543;28;20208;-71
2023/05/03 02:38:36;;;;;;;2.70;2.50;;;;;;;4.33;87.94;101832.66;5013528;28;20223;-71
2023/05/03 02:41:02;;;;;;;4.67;3.07;;;;;;;4.18;88.98;101814.97;5013283;28;20209;-71
2023/05/03 02:43:29;;;;;;;5.23;3.23;;;;;;;4.13;90.24;101799.34;5013364;28;20213;-71
2023/05/03 02:45:55;;;;;;;3.67;3.37;;;;;;;3.93;90.76;101777.22;5013586;28;20266;-71
2023/05/03 02:48:22;;;;;;;4.30;3.90;;;;;;;3.85;92.05;101752.88;5013051;28;20590;-71
2023/05/03 02:50:50;;;;;;;4.00;3.57;;;;;;;3.96;91.98;101736.84;5013175;28;20205;-71
2023/05/03 02:53:16;;;;;;;4.17;3.63;;;;;;;3.96;92.38;101725.63;5013312;28;20207;-71
2023/05/03 02:55:43;;;;;;;5.30;3.60;;;;;;;4.04;92.38;101710.34;5013301;28;20211;-71
2023/05/03 02:58:09;;;;;;;3.53;3.23;;;;;;;4.03;92.61;101698.28;5012865;28;20401;-71
2023/05/03 03:00:36;;;;;;;3.87;3.47;;;;;;;4.00;93.13;101695.59;5013020;28;20213;-71
2023/05/03 03:03:02;;;;;;;3.93;3.30;;;;;;;3.88;93.21;101686.66;5013293;28;20209;-71
2023/05/03 03:05:29;;;;;;;3.97;3.23;;;;;;;3.81;93.36;101692.50;5012890;28;20253;-71
2023/05/03 03:07:56;;;;;;;4.40;3.53;;;;;;;3.71;93.96;101681.00;5012495;28;20281;-71
2023/05/03 03:10:23;;;;;;;4.27;3.23;;;;;;;3.62;94.08;101677.28;5012710;28;20224;-71
2023/05/03 03:12:49;;;;;;;10.93;4.03;;;;;;;3.67;93.73;101670.56;5012782;28;20262;-71
2023/05/03 03:15:16;;;;;;;3.57;3.17;;;;;;;3.62;94.01;101683.31;5012943;28;20199;-71
2023/05/03 03:17:42;;;;;;;3.63;3.33;;;;;;;3.67;93.57;101684.34;5012795;28;20223;-71
2023/05/03 03:20:10;;;;;;;4.23;3.20;;;;;;;3.45;94.15;101693.16;5012727;28;20213;-71
2023/05/03 03:22:36;;;;;;;4.33;3.80;;;;;;;3.32;95.22;101676.41;5012716;28;20260;-71
2023/05/03 03:25:05;;;;;;;7.37;3.90;;;;;;;3.30;96.67;101654.84;5012608;28;20208;-71
2023/05/03 03:27:31;;;;;;;4.93;3.60;;;;;;;3.24;96.58;101638.31;5012342;28;20286;-71
2023/05/03 03:29:58;;;;;;;5.37;3.63;;;;;;;3.28;97.06;101628.13;5012616;28;20235;-71
2023/05/03 03:32:24;;;;;;;4.27;3.37;;;;;;;3.26;97.58;101621.16;5012494;28;20241;-71
2023/05/03 03:34:51;;;;;;;4.90;3.90;;;;;;;3.22;97.43;101630.50;5012363;28;20204;-71
2023/05/03 03:37:18;;;;;;;5.93;3.60;;;;;;;3.27;97.31;101623.78;5012466;28;20234;-71
2023/05/03 03:39:44;;;;;;;4.13;3.73;;;;;;;3.19;97.84;101620.09;5012755;28;20201;-71
2023/05/03 03:42:12;;;;;;;4.70;4.00;;;;;;;3.15;98.45;101605.34;5012873;28;20212;-71
2023/05/03 03:44:39;;;;;;;4.40;4.00;;;;;;;3.12;99.87;101598.41;5012872;28;20215;-71
2023/05/03 03:47:05;;;;;;;5.90;4.30;;;;;;;3.10;100.00;101588.88;5013100;28;20207;-71
2023/05/03 03:49:32;;;;;;;4.10;3.60;;;;;;;3.22;98.75;101588.38;5012235;28;20233;-71
2023/05/03 03:51:58;;;;;;;4.60;4.10;;;;;;;3.09;97.88;101606.06;5012284;28;20261;-71
2023/05/03 03:54:25;;;;;;;4.10;3.70;;;;;;;3.18;98.39;101623.50;5012677;28;20206;-71
2023/05/03 03:56:52;;;;;;;5.73;3.53;;;;;;;3.24;98.11;101630.56;5012315;28;20568;-71
2023/05/03 03:59:19;;;;;;;4.57;3.90;;;;;;;3.32;98.18;101636.81;5012245;28;20214;-71
2023/05/03 04:01:46;;;;;;;6.07;3.70;;;;;;;3.38;98.05;101630.13;5012157;28;20208;-71
2023/05/03 04:04:12;;;;;;;5.80;3.80;;;;;;;3.52;97.67;101629.66;5012020;28;20613;-71
2023/05/03 04:06:39;;;;;;;3.73;3.40;;;;;;;3.51;97.00;101648.59;5012067;28;20212;-70
2023/05/03 04:09:06;;;;;;;4.60;3.43;;;;;;;3.55;97.54;101653.88;5012333;28;20242;-72
2023/05/03 04:11:32;;;;;;;6.30;4.20;;;;;;;3.50;96.98;101654.56;5011940;28;20683;-72
2023/05/03 04:13:59;;;;;;;6.27;3.30;;;;;;;3.54;96.87;101661.56;5012175;28;20628;-71
2023/05/03 04:16:26;;;;;;;6.70;4.17;;;;;;;3.53;96.63;101675.31;5012051;28;20218;-72
2023/05/03 04:18:53;;;;;;;6.60;3.97;;;;;;;3.54;96.91;101674.47;5013715;28;20232;-72
2023/05/03 04:21:19;;;;;;;8.00;3.57;;;;;;;3.60;97.10;101676.38;5015825;28;20207;-72
2023/05/03 04:23:46;;;;;;;8.07;4.23;;;;;;;3.67;97.20;101667.97;5016232;28;20203;-71
2023/05/03 04:26:12;;;;;;;5.47;3.70;;;;;;;3.73;97.58;101668.16;5016187;28;20262;-71
2023/05/03 04:28:39;;;;;;;5.50;3.80;;;;;;;3.64;97.64;101673.03;5029000;23;20373;-74
2023/05/03 04:31:05;;;;;;;7.10;3.40;;;;;;;3.59;97.55;101660.00;5015377;28;20231;-71
2023/05/03 04:33:33;;;;;;;6.20;3.80;;;;;;;3.57;97.89;101662.53;5015391;28;20269;-72
2023/05/03 04:36:00;;;;;;;4.77;4.03;;;;;;;3.71;97.99;101672.41;5015741;28;20290;-71
2023/05/03 04:38:26;;;;;;;4.97;4.20;;;;;;;3.71;96.99;101681.00;5015527;28;20281;-72
2023/05/03 04:40:53;;;;;;;4.93;3.60;;;;;;;3.72;97.14;101692.22;5015408;28;20269;-71
2023/05/03 04:43:19;;;;;;;5.83;4.47;;;;;;;3.71;95.57;101711.13;5015517;28;20619;-71
2023/05/03 04:45:45;;;;;;;4.53;4.10;;;;;;;3.76;95.66;101722.47;5015611;28;20261;-71
2023/05/03 04:48:12;;;;;;;5.33;3.90;;;;;;;3.80;95.25;101741.50;5015348;28;20595;-71
2023/05/03 04:50:40;;;;;;;5.07;3.90;;;;;;;3.91;95.31;101740.13;5015484;28;20254;-71
2023/05/03 04:53:06;;;;;;;5.30;3.90;;;;;;;3.87;93.76;101758.94;5015362;28;20203;-71
2023/05/03 04:55:32;;;;;;;7.13;3.87;;;;;;;3.90;94.00;101777.97;5015474;28;20219;-71
2023/05/03 04:57:59;;;;;;;4.63;4.20;;;;;;;3.96;94.23;101782.44;5015548;28;20227;-71
2023/05/03 05:00:25;;;;;;;5.17;3.90;;;;;;;4.03;92.91;101791.28;5015315;28;20291;-72
2023/05/03 05:02:52;;;;;;;6.77;3.87;;;;;;;4.08;92.95;101815.53;5015238;28;20204;-71
2023/05/03 05:05:18;;;;;;;6.60;4.37;;;;;;;4.08;92.43;101821.56;5014989;28;20267;-71
2023/05/03 05:07:46;;;;;;;4.43;3.53;;;;;;;4.19;92.08;101829.66;5014877;28;20266;-71
2023/05/03 05:10:13;;;;;;;4.67;3.70;;;;;;;4.28;91.21;101844.53;5015063;28;20788;-73
2023/05/03 05:12:39;;;;;;;5.50;4.17;;;;;;;4.23;91.91;101841.84;5015331;28;20404;-71
2023/05/03 05:15:07;;;;;;;4.33;3.80;;;;;;;4.27;91.73;101843.69;5012206;28;20238;-71
2023/05/03 05:17:34;;;;;;;4.50;3.87;;;;;;;4.23;91.29;101851.31;5014568;28;20319;-71
2023/05/03 05:20:00;;;;;;;6.13;4.13;;;;;;;4.34;90.82;101867.97;5014626;28;20581;-71
2023/05/03 05:22:27;;;;;;;6.47;3.87;;;;;;;4.46;90.31;101870.97;5014446;28;20208;-71
2023/05/03 05:24:54;;;;;;;4.57;3.37;;;;;;;4.53;90.02;101895.28;5015054;28;20204;-71
2023/05/03 05:27:21;;;;;;;6.33;3.57;;;;;;;4.51;89.44;101908.16;5014645;28;20248;-71
2023/05/03 05:29:47;;;;;;;5.80;3.60;;;;;;;4.50;89.37;101927.09;5013822;28;20301;-71
2023/05/03 05:32:14;;;;;;;6.20;3.87;;;;;;;4.50;90.12;101918.44;5014433;28;20218;-71
2023/05/03 05:34:41;;;;;;;3.93;3.40;;;;;;;4.41;90.80;101919.06;5013462;28;20239;-71
2023/05/03 05:37:07;;;;;;;5.33;4.00;;;;;;;4.36;91.60;101900.84;5014197;28;20212;-70
2023/05/03 05:39:33;;;;;;;6.03;4.03;;;;;;;4.38;92.87;101881.06;5014651;28;20208;-71
2023/05/03 05:42:01;;;;;;;5.23;3.53;;;;;;;4.45;93.50;101860.56;5014193;28;20617;-71
2023/05/03 05:44:28;;;;;;;5.13;4.40;;;;;;;4.47;94.04;101846.84;5014211;28;20674;-71
2023/05/03 05:46:54;;;;;;;10.43;3.93;;;;;;;4.55;93.48;101849.66;5014191;28;20210;-71
2023/05/03 05:49:20;;;;;;;5.87;3.57;;;;;;;4.65;92.50;101864.59;5014200;28;20204;-71
2023/05/03 05:51:47;;;;;;;4.20;3.73;;;;;;;4.76;91.27;101885.59;5013906;28;20211;-71
2023/05/03 05:54:13;;;;;;;4.20;3.60;;;;;;;4.85;91.67;101883.25;5014627;28;20208;-72
2023/05/03 05:56:40;;;;;;;5.43;4.13;;;;;;;4.84;91.75;101889.28;5014044;28;20208;-71
2023/05/03 05:59:08;;;;;;;5.23;4.10;;;;;;;4.84;90.99;101899.63;5014016;28;20228;-71
2023/05/03 06:01:34;;;;;;;5.53;4.53;;;;;;;5.00;90.96;101910.41;5013951;28;20219;-71
2023/05/03 06:04:01;;;;;;;4.77;3.90;;;;;;;5.07;89.79;101925.25;5014088;28;20253;-71
2023/05/03 06:06:27;;;;;;;8.10;4.30;;;;;;;5.08;88.72;101958.94;5013682;28;20216;-74
2023/05/03 06:08:53;;;;;;;5.80;4.10;;;;;;;5.21;88.99;101960.16;5013687;28;20277;-72
2023/05/03 06:11:20;;;;;;;5.77;4.30;;;;;;;5.27;87.70;101982.75;5013720;28;20714;-72
2023/05/03 06:13:46;;;;;;;5.77;4.40;;;;;;;5.28;87.30;102013.88;5013930;28;20215;-72
2023/05/03 06:16:15;;;;;;;5.33;4.80;;;;;;;5.43;87.41;102010.84;5013516;28;20265;-72
2023/05/03 06:18:41;;;;;;;5.50;4.10;;;;;;;5.61;86.86;102018.22;5013322;28;20233;-72
2023/05/03 06:21:09;;;;;;;7.90;4.60;;;;;;;5.69;85.42;102039.13;5019643;28;20267;-72
2023/05/03 06:23:36;;;;;;;7.00;4.63;;;;;;;5.72;84.64;102059.97;5033706;28;20220;-72
2023/05/03 06:26:02;;;;;;;5.50;4.90;;;;;;;5.73;83.97;102100.59;5035243;28;20207;-79
2023/05/03 06:28:29;;;;;;;8.07;5.07;;;;;;;5.84;83.42;102121.59;5035533;28;20242;-78
2023/05/03 06:30:56;;;;;;;7.00;5.10;;;;;;;5.85;82.88;102146.69;5035061;28;20240;-78
2023/05/03 06:33:24;;;;;;;9.03;4.43;;;;;;;5.75;83.05;102164.56;5032122;28;20214;-78
2023/05/03 06:35:50;;;;;;;8.63;4.53;;;;;;;5.81;83.55;102163.88;5015315;28;20215;-78
2023/05/03 06:38:17;;;;;;;5.07;4.57;;;;;;;5.97;82.90;102173.84;5015969;28;20638;-78
2023/05/03 06:40:44;;;;;;;4.83;4.30;;;;;;;6.04;82.04;102184.38;5014918;28;20211;-78
2023/05/03 06:43:11;;;;;;;4.40;4.10;;;;;;;6.20;80.82;102199.53;5015384;28;20291;-78
2023/05/03 06:45:38;;;;;;;6.17;4.50;;;;;;;6.28;79.85;102229.16;5016348;28;20239;-78
2023/05/03 06:48:06;;;;;;;5.03;4.20;;;;;;;6.36;79.96;102250.09;5015405;28;20294;-78
2023/05/03 06:50:34;;;;;;;4.30;3.90;;;;;;;6.47;80.17;102259.06;5014972;28;20232;-78
2023/05/03 06:53:01;;;;;;;5.67;4.13;;;;;;;6.62;80.01;102257.72;5015288;28;20205;-78
2023/05/03 06:55:27;;;;;;;8.13;4.30;;;;;;;6.65;79.89;102268.19;5014961;28;20620;-78
2023/05/03 06:57:54;;;;;;;6.50;4.10;;;;;;;6.73;79.86;102272.72;5015492;28;20240;-78
2023/05/03 07:00:21;;;;;;;6.23;4.27;;;;;;;6.85;79.22;102282.56;5015553;28;20208;-78
2023/05/03 07:02:48;;;;;;;4.53;4.10;;;;;;;6.92;78.53;102294.88;5015828;28;20282;-78
2023/05/03 07:05:15;;;;;;;6.27;3.37;;;;;;;6.99;78.05;102300.22;5014747;28;20201;-78
2023/05/03 07:07:43;;;;;;;4.90;3.50;;;;;;;7.09;76.23;102335.97;5014704;28;20264;-78
2023/05/03 07:10:10;;;;;;;3.97;3.43;;;;;;;7.10;75.87;102361.09;5015157;28;20238;-78
2023/05/03 07:12:36;;;;;;;9.40;3.67;;;;;;;7.26;76.22;102375.38;5015227;28;20210;-78
2023/05/03 07:15:03;;;;;;;10.27;3.40;;;;;;;7.29;74.90;102397.09;5015514;28;20214;-78
2023/05/03 07:17:29;;;;;;;4.33;3.33;;;;;;;7.31;73.06;102429.22;5014898;28;20584;-78
2023/05/03 07:19:56;;;;;;;5.27;3.30;;;;;;;7.11;71.80;102483.19;5015568;28;20237;-78
2023/05/03 07:22:24;;;;;;;8.90;4.00;;;;;;;7.26;73.84;102497.44;5015289;28;20258;-78
2023/05/03 07:24:53;;;;;;;3.50;3.20;;;;;;;7.32;73.71;102488.09;5015058;28;20212;-78
2023/05/03 07:27:19;;;;;;;6.93;3.40;;;;;;;7.46;72.00;102485.00;5014613;28;20600;-78
2023/05/03 07:29:46;;;;;;;6.87;3.30;;;;;;;7.51;71.59;102507.69;5014690;28;20221;-78
2023/05/03 07:32:12;;;;;;;3.97;2.80;;;;;;;7.58;69.60;102549.44;5015365;28;20208;-78
2023/05/03 07:34:39;;;;;;;4.70;3.03;;;;;;;7.58;68.97;102571.09;5016806;28;20216;-78
2023/05/03 07:37:05;;;;;;;3.63;3.13;;;;;;;7.65;68.83;102595.53;5020294;28;20220;-78
2023/05/03 07:39:32;;;;;;;4.70;3.07;;;;;;;7.72;70.25;102597.47;5014547;28;20213;-78
2023/05/03 07:42:01;;;;;;;3.03;2.43;;;;;;;7.87;67.96;102597.00;5014078;28;20612;-78
2023/05/03 07:44:27;;;;;;;2.60;2.00;;;;;;;8.02;67.50;102622.53;5014299;28;20709;-78
2023/05/03 07:46:54;;;;;;;6.47;2.60;;;;;;;8.13;66.59;102654.94;5014931;28;20214;-78
2023/05/03 07:49:20;;;;;;;5.30;2.67;;;;;;;8.14;66.37;102675.75;5016122;28;20251;-79
2023/05/03 07:51:46;;;;;;;5.27;1.93;;;;;;;8.22;65.94;102709.78;5015836;28;20237;-78
2023/05/03 07:54:13;;;;;;;2.13;1.93;;;;;;;8.28;67.39;102712.56;5016140;28;20672;-79
2023/05/03 07:56:39;;;;;;;4.70;2.10;;;;;;;8.41;65.88;102710.31;5016439;28;20210;-78
2023/05/03 07:59:07;;;;;;;3.17;1.40;;;;;;;8.52;63.25;102733.22;5016685;28;20717;-78
2023/05/03 08:01:33;;;;;;;1.83;1.53;;;;;;;8.65;62.92;102780.41;5015612;28;20198;-78
2023/05/03 08:04:00;;;;;;;5.10;1.60;;;;;;;8.68;61.62;102814.31;5014467;28;20251;-78
2023/05/03 08:06:27;;;;;;;5.40;1.90;;;;;;;8.78;61.20;102823.25;5014359;28;20259;-77
2023/05/03 08:08:53;;;;;;;3.40;2.00;;;;;;;8.72;61.71;102843.09;5014392;28;20789;-79
2023/05/03 08:11:19;;;;;;;3.57;2.33;;;;;;;8.79;61.96;102836.31;5012323;28;20226;-78
2023/05/03 08:13:47;;;;;;;2.80;2.10;;;;;;;8.85;63.42;102849.50;5015628;28;20213;-78
2023/05/03 08:16:15;;;;;;;2.90;2.00;;;;;;;9.01;65.58;102797.81;5015040;28;20537;-78
2023/05/03 08:18:41;;;;;;;5.20;2.87;;;;;;;9.12;62.73;102765.13;5014855;28;20225;-78
2023/05/03 08:21:10;;;;;;;3.00;1.70;;;;;;;9.13;60.04;102805.94;5014085;28;20249;-80
2023/05/03 08:23:37;;;;;;;3.17;1.73;;;;;;;9.10;59.96;102842.38;5015175;28;20208;-79
2023/05/03 08:26:06;;;;;;;3.23;1.50;;;;;;;8.78;58.33;102880.53;5014696;28;20209;-78
2023/05/03 08:28:33;;;;;;;4.57;1.97;;;;;;;8.82;60.22;102909.34;5014429;28;20292;-79
2023/05/03 08:30:59;;;;;;;2.90;1.80;;;;;;;8.90;61.26;102884.38;5014992;28;20227;-78
2023/05/03 08:33:27;;;;;;;2.97;1.90;;;;;;;8.95;60.92;102861.94;5015365;28;20217;-78
2023/05/03 08:35:53;;;;;;;2.80;1.63;;;;;;;8.87;61.69;102865.19;5016161;28;20679;-81
2023/05/03 08:38:20;;;;;;;3.07;1.77;;;;;;;8.92;60.43;102858.38;5016743;28;20227;-80
2023/05/03 08:40:50;;;;;;;2.30;1.80;;;;;;;8.97;60.49;102867.19;5016917;28;20211;-80
2023/05/03 08:43:20;;;;;;;4.53;1.80;;;;;;;8.92;59.38;102874.03;5020615;28;20261;-78
2023/05/03 08:45:47;;;;;;;5.57;2.17;;;;;;;8.97;59.34;102877.63;5033890;28;20214;-78
2023/05/03 08:48:14;;;;;;;1.83;1.50;;;;;;;9.09;59.10;102885.75;5015179;28;20234;-78
2023/05/03 08:50:42;;;;;;;2.97;2.47;;;;;;;9.15;58.74;102893.72;5014877;28;20297;-79
2023/05/03 08:53:09;;;;;;;1.73;1.60;;;;;;;9.26;58.99;102893.16;5015223;28;20211;-78
2023/05/03 08:55:36;;;;;;;2.90;1.80;;;;;;;9.36;58.18;102892.53;5015580;28;20230;-78
2023/05/03 08:58:03;;;;;;;8.07;1.50;;;;;;;9.40;57.91;102909.16;5016008;28;20312;-78
2023/05/03 09:00:29;;;;;;;3.23;2.07;;;;;;;9.44;57.56;102906.66;5016257;28;20245;-80
2023/05/03 09:02:56;;;;;;;4.63;1.80;;;;;;;9.51;57.19;102918.09;5017731;28;20253;-80
2023/05/03 09:05:33;;;;;;;2.17;1.90;;;;;;;9.54;56.70;102931.22;5020380;28;20725;-81
2023/05/03 09:08:06;;;;;;;7.43;1.70;;;;;;;9.48;56.85;102959.75;5019771;28;20223;-81
2023/05/03 09:10:33;;;;;;;2.17;1.50;;;;;;;9.52;56.32;102957.25;5019904;28;20257;-80
2023/05/03 09:13:00;;;;;;;5.90;1.77;;;;;;;9.57;56.31;102959.09;5020033;28;20206;-80
2023/05/03 09:15:28;;;;;;;3.73;1.80;;;;;;;9.64;56.51;102950.59;5019954;28;20206;-80
2023/05/03 09:18:11;;;;;;;2.67;1.77;;;;;;;9.65;55.77;102954.97;5018902;28;20249;-78
2023/05/03 09:20:39;;;;;;;3.17;1.60;;;;;;;9.61;55.50;102967.03;5019805;28;20187;-78
2023/05/03 09:23:08;;;;;;;3.57;1.80;;;;;;;9.47;55.69;102979.72;5019957;28;20317;-80
2023/05/03 09:25:42;;;;;;;2.37;1.87;;;;;;;9.48;56.31;102986.69;5019205;28;20214;-78
2023/05/03 09:28:09;;;;;;;2.90;1.80;;;;;;;9.49;56.73;102975.44;5019300;28;20277;-81
2023/05/03 09:30:35;;;;;;;2.20;2.00;;;;;;;9.51;55.56;102962.44;5019020;28;20298;-80
2023/05/03 09:33:03;;;;;;;2.70;1.60;;;;;;;9.26;55.47;102982.63;5019570;28;20308;-80
2023/05/03 09:35:29;;;;;;;2.40;1.53;;;;;;;9.44;56.86;102968.34;5026905;28;20635;-80
2023/05/03 09:37:56;;;;;;;2.50;1.93;;;;;;;9.53;55.45;102958.13;5020449;28;20648;-81
2023/05/03 09:40:23;;;;;;;2.00;1.80;;;;;;;9.51;54.80;102963.34;5019592;28;20207;-80
2023/05/03 09:43:10;;;;;;;4.97;2.00;;;;;;;9.56;54.34;102979.09;5017912;28;20211;-80
2023/05/03 09:45:36;;;;;;;3.03;1.80;;;;;;;9.64;55.20;102982.78;5019605;28;20210;-80
2023/05/03 09:48:04;;;;;;;4.57;1.67;;;;;;;9.74;55.44;102966.50;5019336;28;20231;-79
2023/05/03 09:50:32;;;;;;;2.37;1.77;;;;;;;9.87;55.45;102959.91;5018596;28;20213;-80
2023/05/03 09:53:01;;;;;;;3.07;1.73;;;;;;;10.00;54.83;102957.56;5019165;28;20558;-78
2023/05/03 09:55:32;;;;;;;7.83;2.10;;;;;;;9.90;53.91;102973.00;5018802;28;20210;-81
2023/05/03 09:57:59;;;;;;;4.80;2.30;;;;;;;9.97;53.83;102981.88;5018878;28;20285;-81
2023/05/03 10:00:28;;;;;;;2.57;1.70;;;;;;;10.06;53.77;102987.28;5018618;28;20695;-80
2023/05/03 10:02:56;;;;;;;3.60;2.00;;;;;;;10.13;55.38;102972.69;5018567;28;20207;-79
2023/05/03 10:05:26;;;;;;;2.73;1.90;;;;;;;10.20;57.67;102953.69;5015820;28;20234;-79
2023/05/03 10:07:55;;;;;;;3.67;1.90;;;;;;;10.41;58.41;102913.31;5018250;28;20635;-79
2023/05/03 10:10:22;;;;;;;3.00;2.10;;;;;;;10.50;58.04;102862.16;5018971;28;20269;-80
2023/05/03 10:12:52;;;;;;;3.70;1.87;;;;;;;10.57;54.77;102855.31;5018224;28;20304;-79
2023/05/03 10:15:21;;;;;;;4.50;2.53;;;;;;;10.55;54.05;102883.13;5018301;28;20330;-79
2023/05/03 10:17:52;;;;;;;5.50;2.10;;;;;;;10.56;55.77;102913.63;5017664;28;20231;-78
2023/05/03 10:20:26;;;;;;;2.43;1.70;;;;;;;10.67;54.34;102903.41;5016942;28;20207;-78
2023/05/03 10:23:10;;;;;;;6.70;2.00;;;;;;;10.63;53.01;102940.75;5017478;28;20209;-78
2023/05/03 10:25:38;;;;;;;3.07;2.10;;;;;;;10.68;52.80;102952.16;5018214;28;20207;-78
2023/05/03 10:28:07;;;;;;;2.47;1.60;;;;;;;10.84;53.29;102972.56;5016118;28;20304;-80
2023/05/03 10:30:34;;;;;;;2.70;1.90;;;;;;;10.95;53.85;102975.38;5047172;23;20295;-78
2023/05/03 10:33:29;;;;;;;3.80;1.90;;;;;;;11.01;51.98;102975.50;5038176;28;20659;-78
2023/05/03 10:35:56;;;;;;;3.40;2.60;;;;;;;11.02;54.29;102999.91;5038480;28;20692;-78
2023/05/03 10:38:24;;;;;;;4.53;1.93;;;;;;;11.03;52.82;102975.53;5037240;28;20261;-78
2023/05/03 10:40:53;;;;;;;4.97;2.03;;;;;;;10.83;51.93;102982.97;5039039;28;20214;-77
2023/05/03 10:43:44;;;;;;;2.27;1.90;;;;;;;11.03;53.16;103002.56;5037700;28;20213;-78
2023/05/03 10:46:30;;;;;;;3.47;1.87;;;;;;;11.03;53.46;102989.47;5039656;28;20252;-77
2023/05/03 10:49:21;;;;;;;2.90;1.73;;;;;;;11.19;54.34;102980.22;5039532;28;20226;-78
2023/05/03 10:51:48;;;;;;;2.43;2.00;;;;;;;11.39;52.55;102950.94;5023532;28;20233;-78
2023/05/03 10:54:15;;;;;;;2.07;1.67;;;;;;;11.46;54.07;102958.06;5039734;28;20244;-78
2023/05/03 10:56:56;;;;;;;2.90;1.97;;;;;;;11.64;52.67;102939.19;5040111;28;20209;-78
2023/05/03 10:59:24;;;;;;;3.97;1.83;;;;;;;11.72;51.73;102950.66;5039324;28;20196;-78
2023/05/03 11:01:52;;;;;;;2.23;1.63;;;;;;;11.82;51.81;102955.19;5039184;28;20671;-78
2023/05/03 11:04:30;;;;;;;2.63;1.93;;;;;;;11.91;51.16;102964.94;5041456;28;20677;-78
2023/05/03 11:06:57;;;;;;;5.67;2.30;;;;;;;12.02;52.59;102975.59;5041293;28;20268;-78
2023/05/03 11:09:31;;;;;;;4.73;2.33;;;;;;;12.20;51.32;102965.41;5039430;28;20202;-78
2023/05/03 11:11:57;;;;;;;3.13;2.30;;;;;;;12.26;50.86;102975.97;5040402;28;20221;-78
2023/05/03 11:14:25;;;;;;;2.97;2.20;;;;;;;12.35;51.83;102983.09;5041412;28;20205;-78
2023/05/03 11:16:56;;;;;;;2.90;2.00;;;;;;;12.30;51.16;102911.44;5042534;28;20216;-76
2023/05/03 11:19:23;;;;;;;2.67;1.83;;;;;;;12.28;51.37;102944.56;5043081;28;20206;-78
2023/05/03 11:21:49;;;;;;;1.87;1.73;;;;;;;12.41;49.75;102940.41;5043274;28;20240;-78
2023/05/03 11:24:16;;;;;;;3.60;1.80;;;;;;;12.61;50.05;102987.84;5042171;28;20209;-78
2023/05/03 11:26:42;;;;;;;3.13;1.67;;;;;;;12.80;48.71;102983.69;5042380;28;20206;-78
2023/05/03 11:29:09;;;;;;;3.03;1.70;;;;;;;13.21;48.16;103002.56;5041249;28;20238;-78
2023/05/03 11:31:38;;;;;;;3.80;1.77;;;;;;;13.48;45.85;103053.63;5043144;28;20234;-78
2023/05/03 11:34:05;;;;;;;2.37;1.63;;;;;;;15.71;43.29;103055.06;5044074;28;20221;-79